sensor_id;sensor_type;location;lat;lon;timestamp;P1;durP1;ratioP1;P2;durP2;ratioP2
17065;SDS011;23120;52.336;21.182;2023-04-23T00:01:38;0.20;;;0.20;;
17065;SDS011;23120;52.336;21.182;2023-04-23T00:04:07;0.20;;;0.20;;
17065;SDS011;23120;52.336;21.182;2023-04-23T00:06:34;0.20;;;0.20;;
17065;SDS011;23120;52.336;21.182;2023-04-23T00:09:01;0.20;;;0.20;;
17065;SDS011;23120;52.336;21.182;2023-04-23T00:11:29;0.20;;;0.20;;
17065;SDS011;23120;52.336;21.182;2023-04-23T00:13:56;0.20;;;0.20;;
17065;SDS011;23120;52.336;21.182;2023-04-23T00:16:25;0.20;;;0.20;;
17065;SDS011;23120;52.336;21.182;2023-04-23T00:18:52;0.20;;;0.20;;
17065;SDS011;23120;52.336;21.182;2023-04-23T00:21:18;0.20;;;0.20;;
17065;SDS011;23120;52.336;21.182;2023-04-23T00:23:45;0.20;;;0.20;;
17065;SDS011;23120;52.336;21.182;2023-04-23T00:26:12;0.20;;;0.20;;
17065;SDS011;23120;52.336;21.182;2023-04-23T00:28:39;0.30;;;0.30;;
17065;SDS011;23120;52.336;21.182;2023-04-23T00:31:06;0.20;;;0.20;;
17065;SDS011;23120;52.336;21.182;2023-04-23T00:33:34;0.20;;;0.20;;
17065;SDS011;23120;52.336;21.182;2023-04-23T00:36:00;0.20;;;0.20;;
17065;SDS011;23120;52.336;21.182;2023-04-23T00:38:28;0.20;;;0.20;;
17065;SDS011;23120;52.336;21.182;2023-04-23T00:40:55;0.20;;;0.20;;
17065;SDS011;23120;52.336;21.182;2023-04-23T00:43:21;0.20;;;0.20;;
17065;SDS011;23120;52.336;21.182;2023-04-23T00:45:49;0.20;;;0.20;;
17065;SDS011;23120;52.336;21.182;2023-04-23T00:48:16;0.20;;;0.20;;
17065;SDS011;23120;52.336;21.182;2023-04-23T00:50:44;0.20;;;0.20;;
17065;SDS011;23120;52.336;21.182;2023-04-23T00:53:11;0.20;;;0.20;;
17065;SDS011;23120;52.336;21.182;2023-04-23T00:55:38;0.20;;;0.20;;
17065;SDS011;23120;52.336;21.182;2023-04-23T00:58:06;0.20;;;0.20;;
17065;SDS011;23120;52.336;21.182;2023-04-23T01:00:33;0.20;;;0.20;;
17065;SDS011;23120;52.336;21.182;2023-04-23T01:03:04;0.20;;;0.20;;
17065;SDS011;23120;52.336;21.182;2023-04-23T01:05:30;0.20;;;0.20;;
17065;SDS011;23120;52.336;21.182;2023-04-23T01:07:59;0.20;;;0.20;;
17065;SDS011;23120;52.336;21.182;2023-04-23T01:10:26;0.20;;;0.20;;
17065;SDS011;23120;52.336;21.182;2023-04-23T01:12:52;0.20;;;0.20;;
17065;SDS011;23120;52.336;21.182;2023-04-23T01:15:20;0.20;;;0.20;;
17065;SDS011;23120;52.336;21.182;2023-04-23T01:17:47;0.20;;;0.20;;
17065;SDS011;23120;52.336;21.182;2023-04-23T01:20:14;0.20;;;0.20;;
17065;SDS011;23120;52.336;21.182;2023-04-23T01:22:42;0.20;;;0.20;;
17065;SDS011;23120;52.336;21.182;2023-04-23T01:25:10;0.20;;;0.20;;
17065;SDS011;23120;52.336;21.182;2023-04-23T01:27:37;0.20;;;0.20;;
17065;SDS011;23120;52.336;21.182;2023-04-23T01:30:04;0.20;;;0.20;;
17065;SDS011;23120;52.336;21.182;2023-04-23T01:32:32;0.20;;;0.20;;
17065;SDS011;23120;52.336;21.182;2023-04-23T01:35:00;0.20;;;0.20;;
17065;SDS011;23120;52.336;21.182;2023-04-23T01:37:28;0.20;;;0.20;;
17065;SDS011;23120;52.336;21.182;2023-04-23T01:39:58;0.20;;;0.20;;
17065;SDS011;23120;52.336;21.182;2023-04-23T01:42:25;0.20;;;0.20;;
17065;SDS011;23120;52.336;21.182;2023-04-23T01:44:52;0.20;;;0.20;;
17065;SDS011;23120;52.336;21.182;2023-04-23T01:47:19;0.20;;;0.20;;
17065;SDS011;23120;52.336;21.182;2023-04-23T01:49:46;0.20;;;0.20;;
17065;SDS011;23120;52.336;21.182;2023-04-23T01:52:13;0.20;;;0.20;;
17065;SDS011;23120;52.336;21.182;2023-04-23T01:54:40;0.20;;;0.20;;
17065;SDS011;23120;52.336;21.182;2023-04-23T01:57:09;0.20;;;0.20;;
17065;SDS011;23120;52.336;21.182;2023-04-23T01:59:36;0.30;;;0.30;;
17065;SDS011;23120;52.336;21.182;2023-04-23T02:02:04;0.20;;;0.20;;
17065;SDS011;23120;52.336;21.182;2023-04-23T02:04:35;0.20;;;0.20;;
17065;SDS011;23120;52.336;21.182;2023-04-23T02:07:03;0.20;;;0.20;;
17065;SDS011;23120;52.336;21.182;2023-04-23T02:09:30;0.20;;;0.20;;
17065;SDS011;23120;52.336;21.182;2023-04-23T02:11:59;0.20;;;0.20;;
17065;SDS011;23120;52.336;21.182;2023-04-23T02:14:28;0.30;;;0.30;;
17065;SDS011;23120;52.336;21.182;2023-04-23T02:16:55;0.30;;;0.30;;
17065;SDS011;23120;52.336;21.182;2023-04-23T02:19:23;0.30;;;0.30;;
17065;SDS011;23120;52.336;21.182;2023-04-23T02:21:50;0.20;;;0.20;;
17065;SDS011;23120;52.336;21.182;2023-04-23T02:24:17;0.30;;;0.30;;
17065;SDS011;23120;52.336;21.182;2023-04-23T02:26:44;0.20;;;0.20;;
17065;SDS011;23120;52.336;21.182;2023-04-23T02:29:11;0.20;;;0.20;;
17065;SDS011;23120;52.336;21.182;2023-04-23T02:31:39;0.20;;;0.20;;
17065;SDS011;23120;52.336;21.182;2023-04-23T02:34:06;0.20;;;0.20;;
17065;SDS011;23120;52.336;21.182;2023-04-23T02:36:33;0.20;;;0.20;;
17065;SDS011;23120;52.336;21.182;2023-04-23T02:39:00;0.20;;;0.20;;
17065;SDS011;23120;52.336;21.182;2023-04-23T02:41:27;0.20;;;0.20;;
17065;SDS011;23120;52.336;21.182;2023-04-23T02:43:54;0.20;;;0.20;;
17065;SDS011;23120;52.336;21.182;2023-04-23T02:46:21;0.20;;;0.20;;
17065;SDS011;23120;52.336;21.182;2023-04-23T02:48:49;0.20;;;0.20;;
17065;SDS011;23120;52.336;21.182;2023-04-23T02:51:16;0.20;;;0.20;;
17065;SDS011;23120;52.336;21.182;2023-04-23T02:53:43;0.20;;;0.20;;
17065;SDS011;23120;52.336;21.182;2023-04-23T02:56:10;0.20;;;0.20;;
17065;SDS011;23120;52.336;21.182;2023-04-23T02:58:36;0.20;;;0.20;;
17065;SDS011;23120;52.336;21.182;2023-04-23T03:01:03;0.30;;;0.30;;
17065;SDS011;23120;52.336;21.182;2023-04-23T03:03:30;0.30;;;0.30;;
17065;SDS011;23120;52.336;21.182;2023-04-23T03:06:01;0.20;;;0.20;;
17065;SDS011;23120;52.336;21.182;2023-04-23T03:08:28;0.20;;;0.20;;
17065;SDS011;23120;52.336;21.182;2023-04-23T03:10:55;0.20;;;0.20;;
17065;SDS011;23120;52.336;21.182;2023-04-23T03:13:22;0.20;;;0.20;;
17065;SDS011;23120;52.336;21.182;2023-04-23T03:15:49;0.20;;;0.20;;
17065;SDS011;23120;52.336;21.182;2023-04-23T03:18:17;0.20;;;0.20;;
17065;SDS011;23120;52.336;21.182;2023-04-23T03:20:47;0.20;;;0.20;;
17065;SDS011;23120;52.336;21.182;2023-04-23T03:23:16;0.20;;;0.20;;
17065;SDS011;23120;52.336;21.182;2023-04-23T03:25:44;0.20;;;0.20;;
17065;SDS011;23120;52.336;21.182;2023-04-23T03:28:12;0.20;;;0.20;;
17065;SDS011;23120;52.336;21.182;2023-04-23T03:30:39;0.20;;;0.20;;
17065;SDS011;23120;52.336;21.182;2023-04-23T03:33:05;0.20;;;0.20;;
17065;SDS011;23120;52.336;21.182;2023-04-23T03:35:32;0.20;;;0.20;;
17065;SDS011;23120;52.336;21.182;2023-04-23T03:38:02;0.20;;;0.20;;
17065;SDS011;23120;52.336;21.182;2023-04-23T03:40:31;0.20;;;0.20;;
17065;SDS011;23120;52.336;21.182;2023-04-23T03:43:01;0.20;;;0.20;;
17065;SDS011;23120;52.336;21.182;2023-04-23T03:45:48;0.30;;;0.30;;
17065;SDS011;23120;52.336;21.182;2023-04-23T03:48:15;0.20;;;0.20;;
17065;SDS011;23120;52.336;21.182;2023-04-23T03:50:43;0.20;;;0.20;;
17065;SDS011;23120;52.336;21.182;2023-04-23T03:53:24;0.20;;;0.20;;
17065;SDS011;23120;52.336;21.182;2023-04-23T03:56:13;0.20;;;0.20;;
17065;SDS011;23120;52.336;21.182;2023-04-23T03:58:56;0.20;;;0.20;;
17065;SDS011;23120;52.336;21.182;2023-04-23T04:01:23;0.20;;;0.20;;
17065;SDS011;23120;52.336;21.182;2023-04-23T04:03:49;0.20;;;0.20;;
17065;SDS011;23120;52.336;21.182;2023-04-23T04:06:16;0.20;;;0.20;;
17065;SDS011;23120;52.336;21.182;2023-04-23T04:08:43;0.20;;;0.20;;
17065;SDS011;23120;52.336;21.182;2023-04-23T04:11:10;0.20;;;0.20;;
17065;SDS011;23120;52.336;21.182;2023-04-23T04:13:38;0.20;;;0.20;;
17065;SDS011;23120;52.336;21.182;2023-04-23T04:16:05;0.20;;;0.20;;
17065;SDS011;23120;52.336;21.182;2023-04-23T04:18:32;0.20;;;0.20;;
17065;SDS011;23120;52.336;21.182;2023-04-23T04:20:58;0.20;;;0.20;;
17065;SDS011;23120;52.336;21.182;2023-04-23T04:23:26;0.20;;;0.20;;
17065;SDS011;23120;52.336;21.182;2023-04-23T04:25:52;0.30;;;0.30;;
17065;SDS011;23120;52.336;21.182;2023-04-23T04:28:20;0.20;;;0.20;;
17065;SDS011;23120;52.336;21.182;2023-04-23T04:30:50;0.20;;;0.20;;
17065;SDS011;23120;52.336;21.182;2023-04-23T04:33:19;0.20;;;0.20;;
17065;SDS011;23120;52.336;21.182;2023-04-23T04:35:46;0.20;;;0.20;;
17065;SDS011;23120;52.336;21.182;2023-04-23T04:38:13;0.20;;;0.20;;
17065;SDS011;23120;52.336;21.182;2023-04-23T04:40:41;0.20;;;0.20;;
17065;SDS011;23120;52.336;21.182;2023-04-23T04:43:07;0.20;;;0.20;;
17065;SDS011;23120;52.336;21.182;2023-04-23T04:45:35;0.27;;;0.27;;
17065;SDS011;23120;52.336;21.182;2023-04-23T04:48:03;0.20;;;0.20;;
17065;SDS011;23120;52.336;21.182;2023-04-23T04:50:30;0.20;;;0.20;;
17065;SDS011;23120;52.336;21.182;2023-04-23T04:52:56;0.20;;;0.20;;
17065;SDS011;23120;52.336;21.182;2023-04-23T04:55:23;0.20;;;0.20;;
17065;SDS011;23120;52.336;21.182;2023-04-23T04:57:51;0.20;;;0.20;;
17065;SDS011;23120;52.336;21.182;2023-04-23T05:00:19;0.20;;;0.20;;
17065;SDS011;23120;52.336;21.182;2023-04-23T05:02:48;0.20;;;0.20;;
17065;SDS011;23120;52.336;21.182;2023-04-23T05:05:17;0.20;;;0.20;;
17065;SDS011;23120;52.336;21.182;2023-04-23T05:07:45;0.20;;;0.20;;
17065;SDS011;23120;52.336;21.182;2023-04-23T05:10:12;0.20;;;0.20;;
17065;SDS011;23120;52.336;21.182;2023-04-23T05:12:39;0.20;;;0.20;;
17065;SDS011;23120;52.336;21.182;2023-04-23T05:15:07;0.20;;;0.20;;
17065;SDS011;23120;52.336;21.182;2023-04-23T05:17:37;0.30;;;0.30;;
17065;SDS011;23120;52.336;21.182;2023-04-23T05:20:04;0.20;;;0.20;;
17065;SDS011;23120;52.336;21.182;2023-04-23T05:22:36;0.20;;;0.20;;
17065;SDS011;23120;52.336;21.182;2023-04-23T05:25:03;0.20;;;0.20;;
17065;SDS011;23120;52.336;21.182;2023-04-23T05:27:31;0.20;;;0.20;;
17065;SDS011;23120;52.336;21.182;2023-04-23T05:29:58;0.20;;;0.20;;
17065;SDS011;23120;52.336;21.182;2023-04-23T05:32:25;0.20;;;0.20;;
17065;SDS011;23120;52.336;21.182;2023-04-23T05:34:52;0.20;;;0.20;;
17065;SDS011;23120;52.336;21.182;2023-04-23T05:37:19;0.30;;;0.30;;
17065;SDS011;23120;52.336;21.182;2023-04-23T05:39:48;0.20;;;0.20;;
17065;SDS011;23120;52.336;21.182;2023-04-23T05:42:14;0.20;;;0.20;;
17065;SDS011;23120;52.336;21.182;2023-04-23T05:44:41;0.20;;;0.20;;
17065;SDS011;23120;52.336;21.182;2023-04-23T05:47:08;0.23;;;0.23;;
17065;SDS011;23120;52.336;21.182;2023-04-23T05:49:36;0.30;;;0.30;;
17065;SDS011;23120;52.336;21.182;2023-04-23T05:52:03;0.20;;;0.20;;
17065;SDS011;23120;52.336;21.182;2023-04-23T05:54:29;0.20;;;0.20;;
17065;SDS011;23120;52.336;21.182;2023-04-23T05:56:58;0.20;;;0.20;;
17065;SDS011;23120;52.336;21.182;2023-04-23T05:59:25;0.20;;;0.20;;
17065;SDS011;23120;52.336;21.182;2023-04-23T06:01:51;0.20;;;0.20;;
17065;SDS011;23120;52.336;21.182;2023-04-23T06:04:18;0.20;;;0.20;;
17065;SDS011;23120;52.336;21.182;2023-04-23T06:06:45;0.20;;;0.20;;
17065;SDS011;23120;52.336;21.182;2023-04-23T06:09:12;0.20;;;0.20;;
17065;SDS011;23120;52.336;21.182;2023-04-23T06:11:39;0.20;;;0.20;;
17065;SDS011;23120;52.336;21.182;2023-04-23T06:14:07;0.20;;;0.20;;
17065;SDS011;23120;52.336;21.182;2023-04-23T06:16:35;0.20;;;0.20;;
17065;SDS011;23120;52.336;21.182;2023-04-23T06:19:02;0.20;;;0.20;;
17065;SDS011;23120;52.336;21.182;2023-04-23T06:21:29;0.20;;;0.20;;
17065;SDS011;23120;52.336;21.182;2023-04-23T06:23:56;0.20;;;0.20;;
17065;SDS011;23120;52.336;21.182;2023-04-23T06:26:23;0.20;;;0.20;;
17065;SDS011;23120;52.336;21.182;2023-04-23T06:28:53;0.20;;;0.20;;
17065;SDS011;23120;52.336;21.182;2023-04-23T06:31:28;0.20;;;0.20;;
17065;SDS011;23120;52.336;21.182;2023-04-23T06:33:55;0.20;;;0.20;;
17065;SDS011;23120;52.336;21.182;2023-04-23T06:36:21;0.20;;;0.20;;
17065;SDS011;23120;52.336;21.182;2023-04-23T06:38:48;0.20;;;0.20;;
17065;SDS011;23120;52.336;21.182;2023-04-23T06:41:15;0.20;;;0.20;;
17065;SDS011;23120;52.336;21.182;2023-04-23T06:43:42;0.20;;;0.20;;
17065;SDS011;23120;52.336;21.182;2023-04-23T06:46:19;0.20;;;0.20;;
17065;SDS011;23120;52.336;21.182;2023-04-23T06:48:48;0.20;;;0.20;;
17065;SDS011;23120;52.336;21.182;2023-04-23T06:51:15;0.20;;;0.20;;
17065;SDS011;23120;52.336;21.182;2023-04-23T06:53:42;0.20;;;0.20;;
17065;SDS011;23120;52.336;21.182;2023-04-23T06:56:09;0.20;;;0.20;;
17065;SDS011;23120;52.336;21.182;2023-04-23T06:58:35;0.20;;;0.20;;
17065;SDS011;23120;52.336;21.182;2023-04-23T07:01:11;0.20;;;0.20;;
17065;SDS011;23120;52.336;21.182;2023-04-23T07:03:38;0.20;;;0.20;;
17065;SDS011;23120;52.336;21.182;2023-04-23T07:06:09;0.20;;;0.20;;
17065;SDS011;23120;52.336;21.182;2023-04-23T07:08:36;0.20;;;0.20;;
17065;SDS011;23120;52.336;21.182;2023-04-23T07:11:03;0.20;;;0.20;;
17065;SDS011;23120;52.336;21.182;2023-04-23T07:13:31;0.20;;;0.20;;
17065;SDS011;23120;52.336;21.182;2023-04-23T07:15:58;0.20;;;0.20;;
17065;SDS011;23120;52.336;21.182;2023-04-23T07:18:24;0.20;;;0.20;;
17065;SDS011;23120;52.336;21.182;2023-04-23T07:20:51;0.20;;;0.20;;
17065;SDS011;23120;52.336;21.182;2023-04-23T07:23:19;0.20;;;0.20;;
17065;SDS011;23120;52.336;21.182;2023-04-23T07:25:46;0.20;;;0.20;;
17065;SDS011;23120;52.336;21.182;2023-04-23T07:28:13;0.10;;;0.10;;
17065;SDS011;23120;52.336;21.182;2023-04-23T07:30:40;0.10;;;0.10;;
17065;SDS011;23120;52.336;21.182;2023-04-23T07:33:07;0.10;;;0.10;;
17065;SDS011;23120;52.336;21.182;2023-04-23T07:35:33;0.20;;;0.20;;
17065;SDS011;23120;52.336;21.182;2023-04-23T07:38:00;0.20;;;0.20;;
17065;SDS011;23120;52.336;21.182;2023-04-23T07:40:29;0.20;;;0.20;;
17065;SDS011;23120;52.336;21.182;2023-04-23T07:42:56;0.20;;;0.20;;
17065;SDS011;23120;52.336;21.182;2023-04-23T07:45:23;0.10;;;0.10;;
17065;SDS011;23120;52.336;21.182;2023-04-23T07:47:50;0.20;;;0.20;;
17065;SDS011;23120;52.336;21.182;2023-04-23T07:50:17;0.10;;;0.10;;
17065;SDS011;23120;52.336;21.182;2023-04-23T07:52:44;0.10;;;0.10;;
17065;SDS011;23120;52.336;21.182;2023-04-23T07:55:10;0.10;;;0.10;;
17065;SDS011;23120;52.336;21.182;2023-04-23T07:57:39;0.10;;;0.10;;
17065;SDS011;23120;52.336;21.182;2023-04-23T08:00:06;0.10;;;0.10;;
17065;SDS011;23120;52.336;21.182;2023-04-23T08:02:38;0.10;;;0.10;;
17065;SDS011;23120;52.336;21.182;2023-04-23T08:05:05;0.20;;;0.20;;
17065;SDS011;23120;52.336;21.182;2023-04-23T08:07:32;0.10;;;0.10;;
17065;SDS011;23120;52.336;21.182;2023-04-23T08:09:59;0.10;;;0.10;;
17065;SDS011;23120;52.336;21.182;2023-04-23T08:12:30;0.10;;;0.10;;
17065;SDS011;23120;52.336;21.182;2023-04-23T08:14:59;0.20;;;0.20;;
17065;SDS011;23120;52.336;21.182;2023-04-23T08:17:33;0.10;;;0.10;;
17065;SDS011;23120;52.336;21.182;2023-04-23T08:20:00;0.10;;;0.10;;
17065;SDS011;23120;52.336;21.182;2023-04-23T08:22:27;0.10;;;0.10;;
17065;SDS011;23120;52.336;21.182;2023-04-23T08:24:54;0.10;;;0.10;;
17065;SDS011;23120;52.336;21.182;2023-04-23T08:27:21;0.10;;;0.10;;
17065;SDS011;23120;52.336;21.182;2023-04-23T08:29:48;0.10;;;0.10;;
17065;SDS011;23120;52.336;21.182;2023-04-23T08:32:17;0.10;;;0.10;;
17065;SDS011;23120;52.336;21.182;2023-04-23T08:34:44;0.20;;;0.20;;
17065;SDS011;23120;52.336;21.182;2023-04-23T08:37:10;0.10;;;0.10;;
17065;SDS011;23120;52.336;21.182;2023-04-23T08:39:37;0.10;;;0.10;;
17065;SDS011;23120;52.336;21.182;2023-04-23T08:42:07;0.10;;;0.10;;
17065;SDS011;23120;52.336;21.182;2023-04-23T08:44:37;0.10;;;0.10;;
17065;SDS011;23120;52.336;21.182;2023-04-23T08:47:07;0.10;;;0.10;;
17065;SDS011;23120;52.336;21.182;2023-04-23T08:49:40;0.10;;;0.10;;
17065;SDS011;23120;52.336;21.182;2023-04-23T08:52:10;0.10;;;0.10;;
17065;SDS011;23120;52.336;21.182;2023-04-23T08:54:44;0.10;;;0.10;;
17065;SDS011;23120;52.336;21.182;2023-04-23T08:57:15;0.10;;;0.10;;
17065;SDS011;23120;52.336;21.182;2023-04-23T08:59:43;0.10;;;0.10;;
17065;SDS011;23120;52.336;21.182;2023-04-23T09:02:10;0.10;;;0.10;;
17065;SDS011;23120;52.336;21.182;2023-04-23T09:04:38;0.10;;;0.10;;
17065;SDS011;23120;52.336;21.182;2023-04-23T09:07:06;0.10;;;0.10;;
17065;SDS011;23120;52.336;21.182;2023-04-23T09:09:35;0.10;;;0.10;;
17065;SDS011;23120;52.336;21.182;2023-04-23T09:12:03;0.10;;;0.10;;
17065;SDS011;23120;52.336;21.182;2023-04-23T09:14:31;0.10;;;0.10;;
17065;SDS011;23120;52.336;21.182;2023-04-23T09:16:58;0.10;;;0.10;;
17065;SDS011;23120;52.336;21.182;2023-04-23T09:19:26;0.10;;;0.10;;
17065;SDS011;23120;52.336;21.182;2023-04-23T09:21:54;0.10;;;0.10;;
17065;SDS011;23120;52.336;21.182;2023-04-23T09:24:23;0.10;;;0.10;;
17065;SDS011;23120;52.336;21.182;2023-04-23T09:26:51;0.10;;;0.10;;
17065;SDS011;23120;52.336;21.182;2023-04-23T09:29:19;0.10;;;0.10;;
17065;SDS011;23120;52.336;21.182;2023-04-23T09:31:48;0.03;;;0.03;;
17065;SDS011;23120;52.336;21.182;2023-04-23T09:34:17;0.10;;;0.10;;
17065;SDS011;23120;52.336;21.182;2023-04-23T09:36:44;0.00;;;0.00;;
17065;SDS011;23120;52.336;21.182;2023-04-23T09:39:15;0.10;;;0.10;;
17065;SDS011;23120;52.336;21.182;2023-04-23T09:41:43;0.10;;;0.10;;
17065;SDS011;23120;52.336;21.182;2023-04-23T09:44:11;0.00;;;0.00;;
17065;SDS011;23120;52.336;21.182;2023-04-23T09:46:42;0.10;;;0.10;;
17065;SDS011;23120;52.336;21.182;2023-04-23T09:49:10;0.10;;;0.10;;
17065;SDS011;23120;52.336;21.182;2023-04-23T09:51:38;0.10;;;0.10;;
17065;SDS011;23120;52.336;21.182;2023-04-23T09:54:09;0.10;;;0.10;;
17065;SDS011;23120;52.336;21.182;2023-04-23T09:56:38;0.10;;;0.10;;
17065;SDS011;23120;52.336;21.182;2023-04-23T09:59:18;0.20;;;0.20;;
17065;SDS011;23120;52.336;21.182;2023-04-23T10:01:45;0.00;;;0.00;;
17065;SDS011;23120;52.336;21.182;2023-04-23T10:04:13;0.10;;;0.10;;
17065;SDS011;23120;52.336;21.182;2023-04-23T10:06:43;0.00;;;0.00;;
17065;SDS011;23120;52.336;21.182;2023-04-23T10:09:10;0.00;;;0.00;;
17065;SDS011;23120;52.336;21.182;2023-04-23T10:11:39;0.00;;;0.00;;
17065;SDS011;23120;52.336;21.182;2023-04-23T10:14:06;0.00;;;0.00;;
17065;SDS011;23120;52.336;21.182;2023-04-23T10:16:34;0.10;;;0.10;;
17065;SDS011;23120;52.336;21.182;2023-04-23T10:19:02;0.10;;;0.10;;
17065;SDS011;23120;52.336;21.182;2023-04-23T10:21:31;0.10;;;0.10;;
17065;SDS011;23120;52.336;21.182;2023-04-23T10:23:59;0.10;;;0.10;;
17065;SDS011;23120;52.336;21.182;2023-04-23T10:26:27;0.10;;;0.10;;
17065;SDS011;23120;52.336;21.182;2023-04-23T10:28:59;0.10;;;0.10;;
17065;SDS011;23120;52.336;21.182;2023-04-23T10:31:28;0.00;;;0.00;;
17065;SDS011;23120;52.336;21.182;2023-04-23T10:33:57;0.00;;;0.00;;
17065;SDS011;23120;52.336;21.182;2023-04-23T10:36:26;0.00;;;0.00;;
17065;SDS011;23120;52.336;21.182;2023-04-23T10:38:53;0.00;;;0.00;;
17065;SDS011;23120;52.336;21.182;2023-04-23T10:41:21;0.00;;;0.00;;
17065;SDS011;23120;52.336;21.182;2023-04-23T10:43:52;0.00;;;0.00;;
17065;SDS011;23120;52.336;21.182;2023-04-23T10:46:29;0.05;;;0.05;;
17065;SDS011;23120;52.336;21.182;2023-04-23T10:49:04;0.10;;;0.10;;
17065;SDS011;23120;52.336;21.182;2023-04-23T10:51:32;0.10;;;0.10;;
17065;SDS011;23120;52.336;21.182;2023-04-23T10:54:01;0.00;;;0.00;;
17065;SDS011;23120;52.336;21.182;2023-04-23T10:56:28;0.10;;;0.10;;
17065;SDS011;23120;52.336;21.182;2023-04-23T10:58:55;0.10;;;0.10;;
17065;SDS011;23120;52.336;21.182;2023-04-23T11:01:23;0.00;;;0.00;;
17065;SDS011;23120;52.336;21.182;2023-04-23T11:03:52;0.00;;;0.00;;
17065;SDS011;23120;52.336;21.182;2023-04-23T11:06:20;0.00;;;0.00;;
17065;SDS011;23120;52.336;21.182;2023-04-23T11:12:11;0.10;;;0.10;;
17065;SDS011;23120;52.336;21.182;2023-04-23T11:14:45;0.00;;;0.00;;
17065;SDS011;23120;52.336;21.182;2023-04-23T11:17:14;0.00;;;0.00;;
17065;SDS011;23120;52.336;21.182;2023-04-23T11:20:04;0.00;;;0.00;;
17065;SDS011;23120;52.336;21.182;2023-04-23T11:22:35;0.00;;;0.00;;
17065;SDS011;23120;52.336;21.182;2023-04-23T11:25:04;0.00;;;0.00;;
17065;SDS011;23120;52.336;21.182;2023-04-23T11:27:35;0.10;;;0.10;;
17065;SDS011;23120;52.336;21.182;2023-04-23T11:30:05;0.10;;;0.10;;
17065;SDS011;23120;52.336;21.182;2023-04-23T11:32:35;0.00;;;0.00;;
17065;SDS011;23120;52.336;21.182;2023-04-23T11:35:02;0.10;;;0.10;;
17065;SDS011;23120;52.336;21.182;2023-04-23T11:37:30;0.10;;;0.10;;
17065;SDS011;23120;52.336;21.182;2023-04-23T11:39:58;0.00;;;0.00;;
17065;SDS011;23120;52.336;21.182;2023-04-23T11:42:32;0.00;;;0.00;;
17065;SDS011;23120;52.336;21.182;2023-04-23T11:45:06;0.00;;;0.00;;
17065;SDS011;23120;52.336;21.182;2023-04-23T11:47:40;0.00;;;0.00;;
17065;SDS011;23120;52.336;21.182;2023-04-23T11:50:08;0.00;;;0.00;;
17065;SDS011;23120;52.336;21.182;2023-04-23T11:52:35;0.00;;;0.00;;
17065;SDS011;23120;52.336;21.182;2023-04-23T11:55:04;0.00;;;0.00;;
17065;SDS011;23120;52.336;21.182;2023-04-23T11:57:33;0.00;;;0.00;;
17065;SDS011;23120;52.336;21.182;2023-04-23T12:00:09;0.00;;;0.00;;
17065;SDS011;23120;52.336;21.182;2023-04-23T12:02:37;0.00;;;0.00;;
17065;SDS011;23120;52.336;21.182;2023-04-23T12:05:15;0.00;;;0.00;;
17065;SDS011;23120;52.336;21.182;2023-04-23T12:07:41;0.00;;;0.00;;
17065;SDS011;23120;52.336;21.182;2023-04-23T12:10:10;0.00;;;0.00;;
17065;SDS011;23120;52.336;21.182;2023-04-23T12:12:42;0.00;;;0.00;;
17065;SDS011;23120;52.336;21.182;2023-04-23T12:15:09;0.00;;;0.00;;
17065;SDS011;23120;52.336;21.182;2023-04-23T12:17:37;0.00;;;0.00;;
17065;SDS011;23120;52.336;21.182;2023-04-23T12:20:04;0.00;;;0.00;;
17065;SDS011;23120;52.336;21.182;2023-04-23T12:22:36;0.00;;;0.00;;
17065;SDS011;23120;52.336;21.182;2023-04-23T12:25:04;0.00;;;0.00;;
17065;SDS011;23120;52.336;21.182;2023-04-23T12:27:37;0.00;;;0.00;;
17065;SDS011;23120;52.336;21.182;2023-04-23T12:30:04;0.00;;;0.00;;
17065;SDS011;23120;52.336;21.182;2023-04-23T12:32:32;0.00;;;0.00;;
17065;SDS011;23120;52.336;21.182;2023-04-23T12:34:59;0.00;;;0.00;;
17065;SDS011;23120;52.336;21.182;2023-04-23T12:37:30;0.00;;;0.00;;
17065;SDS011;23120;52.336;21.182;2023-04-23T12:40:01;0.00;;;0.00;;
17065;SDS011;23120;52.336;21.182;2023-04-23T12:42:31;0.00;;;0.00;;
17065;SDS011;23120;52.336;21.182;2023-04-23T12:45:05;0.00;;;0.00;;
17065;SDS011;23120;52.336;21.182;2023-04-23T12:47:33;0.00;;;0.00;;
17065;SDS011;23120;52.336;21.182;2023-04-23T12:50:00;0.00;;;0.00;;
17065;SDS011;23120;52.336;21.182;2023-04-23T12:52:29;0.00;;;0.00;;
17065;SDS011;23120;52.336;21.182;2023-04-23T12:54:56;0.00;;;0.00;;
17065;SDS011;23120;52.336;21.182;2023-04-23T12:57:25;0.00;;;0.00;;
17065;SDS011;23120;52.336;21.182;2023-04-23T12:59:52;0.10;;;0.10;;
17065;SDS011;23120;52.336;21.182;2023-04-23T13:02:21;0.00;;;0.00;;
17065;SDS011;23120;52.336;21.182;2023-04-23T13:04:49;0.00;;;0.00;;
17065;SDS011;23120;52.336;21.182;2023-04-23T13:07:18;0.00;;;0.00;;
17065;SDS011;23120;52.336;21.182;2023-04-23T13:09:45;0.00;;;0.00;;
17065;SDS011;23120;52.336;21.182;2023-04-23T13:12:12;0.00;;;0.00;;
17065;SDS011;23120;52.336;21.182;2023-04-23T13:14:39;0.00;;;0.00;;
17065;SDS011;23120;52.336;21.182;2023-04-23T13:17:06;0.00;;;0.00;;
17065;SDS011;23120;52.336;21.182;2023-04-23T13:19:34;0.00;;;0.00;;
17065;SDS011;23120;52.336;21.182;2023-04-23T13:22:03;0.00;;;0.00;;
17065;SDS011;23120;52.336;21.182;2023-04-23T13:24:30;0.10;;;0.10;;
17065;SDS011;23120;52.336;21.182;2023-04-23T13:26:57;0.00;;;0.00;;
17065;SDS011;23120;52.336;21.182;2023-04-23T13:29:24;0.00;;;0.00;;
17065;SDS011;23120;52.336;21.182;2023-04-23T13:31:52;0.00;;;0.00;;
17065;SDS011;23120;52.336;21.182;2023-04-23T13:34:19;0.10;;;0.10;;
17065;SDS011;23120;52.336;21.182;2023-04-23T13:36:48;0.00;;;0.00;;
17065;SDS011;23120;52.336;21.182;2023-04-23T13:39:14;0.00;;;0.00;;
17065;SDS011;23120;52.336;21.182;2023-04-23T13:41:42;0.00;;;0.00;;
17065;SDS011;23120;52.336;21.182;2023-04-23T13:44:09;0.00;;;0.00;;
17065;SDS011;23120;52.336;21.182;2023-04-23T13:46:37;0.00;;;0.00;;
17065;SDS011;23120;52.336;21.182;2023-04-23T13:49:05;0.00;;;0.00;;
17065;SDS011;23120;52.336;21.182;2023-04-23T13:51:32;0.00;;;0.00;;
17065;SDS011;23120;52.336;21.182;2023-04-23T13:54:00;0.00;;;0.00;;
17065;SDS011;23120;52.336;21.182;2023-04-23T13:56:27;0.00;;;0.00;;
17065;SDS011;23120;52.336;21.182;2023-04-23T13:58:55;0.00;;;0.00;;
17065;SDS011;23120;52.336;21.182;2023-04-23T14:01:26;0.00;;;0.00;;
17065;SDS011;23120;52.336;21.182;2023-04-23T14:03:53;0.00;;;0.00;;
17065;SDS011;23120;52.336;21.182;2023-04-23T14:06:20;0.00;;;0.00;;
17065;SDS011;23120;52.336;21.182;2023-04-23T14:08:47;0.00;;;0.00;;
17065;SDS011;23120;52.336;21.182;2023-04-23T14:11:15;0.00;;;0.00;;
17065;SDS011;23120;52.336;21.182;2023-04-23T14:13:43;0.00;;;0.00;;
17065;SDS011;23120;52.336;21.182;2023-04-23T14:16:09;0.00;;;0.00;;
17065;SDS011;23120;52.336;21.182;2023-04-23T14:18:38;0.00;;;0.00;;
17065;SDS011;23120;52.336;21.182;2023-04-23T14:21:05;0.00;;;0.00;;
17065;SDS011;23120;52.336;21.182;2023-04-23T14:23:41;0.00;;;0.00;;
17065;SDS011;23120;52.336;21.182;2023-04-23T14:26:27;0.00;;;0.00;;
17065;SDS011;23120;52.336;21.182;2023-04-23T14:29:01;0.00;;;0.00;;
17065;SDS011;23120;52.336;21.182;2023-04-23T14:31:29;0.00;;;0.00;;
17065;SDS011;23120;52.336;21.182;2023-04-23T14:33:55;0.00;;;0.00;;
17065;SDS011;23120;52.336;21.182;2023-04-23T14:36:24;0.00;;;0.00;;
17065;SDS011;23120;52.336;21.182;2023-04-23T14:38:50;0.00;;;0.00;;
17065;SDS011;23120;52.336;21.182;2023-04-23T14:41:20;0.00;;;0.00;;
17065;SDS011;23120;52.336;21.182;2023-04-23T14:43:48;0.00;;;0.00;;